sensor_id;sensor_type;location;lat;lon;timestamp;pressure;altitude;pressure_sealevel;temperature;humidity
80988;BME280;70452;39.386;-3.210;2023-11-19T00:03:39;95052.63;;;8.81;100.00
80988;BME280;70452;39.386;-3.210;2023-11-19T00:06:25;95051.81;;;8.80;100.00
80988;BME280;70452;39.386;-3.210;2023-11-19T00:09:15;95048.00;;;8.81;100.00
80988;BME280;70452;39.386;-3.210;2023-11-19T00:11:47;95040.09;;;8.80;100.00
80988;BME280;70452;39.386;-3.210;2023-11-19T00:14:30;95044.47;;;8.81;100.00
80988;BME280;70452;39.386;-3.210;2023-11-19T00:17:01;95042.81;;;8.80;100.00
80988;BME280;70452;39.386;-3.210;2023-11-19T00:19:42;95046.38;;;8.80;100.00
80988;BME280;70452;39.386;-3.210;2023-11-19T00:22:14;95032.19;;;8.78;100.00
80988;BME280;70452;39.386;-3.210;2023-11-19T00:24:48;95036.00;;;8.77;100.00
80988;BME280;70452;39.386;-3.210;2023-11-19T00:27:26;95034.34;;;8.76;100.00
80988;BME280;70452;39.386;-3.210;2023-11-19T00:30:04;95033.78;;;8.74;100.00
80988;BME280;70452;39.386;-3.210;2023-11-19T00:32:57;95027.53;;;8.74;100.00
80988;BME280;70452;39.386;-3.210;2023-11-19T00:35:40;95034.28;;;8.71;100.00
80988;BME280;70452;39.386;-3.210;2023-11-19T00:38:10;95031.56;;;8.71;100.00
80988;BME280;70452;39.386;-3.210;2023-11-19T00:40:50;95024.97;;;8.67;100.00
80988;BME280;70452;39.386;-3.210;2023-11-19T00:43:24;95018.22;;;8.70;100.00
80988;BME280;70452;39.386;-3.210;2023-11-19T00:46:07;95013.88;;;8.69;100.00
80988;BME280;70452;39.386;-3.210;2023-11-19T00:48:48;95009.19;;;8.64;100.00
80988;BME280;70452;39.386;-3.210;2023-11-19T00:51:27;95008.63;;;8.62;100.00
80988;BME280;70452;39.386;-3.210;2023-11-19T00:53:59;95005.09;;;8.61;100.00
80988;BME280;70452;39.386;-3.210;2023-11-19T00:56:27;95002.28;;;8.56;100.00
80988;BME280;70452;39.386;-3.210;2023-11-19T00:59:10;95003.34;;;8.55;100.00
80988;BME280;70452;39.386;-3.210;2023-11-19T01:01:44;95000.63;;;8.55;100.00
80988;BME280;70452;39.386;-3.210;2023-11-19T01:04:32;94998.41;;;8.52;100.00
80988;BME280;70452;39.386;-3.210;2023-11-19T01:07:16;94997.34;;;8.53;100.00
80988;BME280;70452;39.386;-3.210;2023-11-19T01:09:53;94988.91;;;8.50;100.00
80988;BME280;70452;39.386;-3.210;2023-11-19T01:12:31;94983.22;;;8.51;100.00
80988;BME280;70452;39.386;-3.210;2023-11-19T01:14:58;94978.09;;;8.55;100.00
80988;BME280;70452;39.386;-3.210;2023-11-19T01:17:44;94980.19;;;8.48;100.00
80988;BME280;70452;39.386;-3.210;2023-11-19T01:20:29;94984.19;;;8.45;100.00
80988;BME280;70452;39.386;-3.210;2023-11-19T01:23:00;94984.53;;;8.49;100.00
80988;BME280;70452;39.386;-3.210;2023-11-19T01:25:47;94967.16;;;8.50;100.00
80988;BME280;70452;39.386;-3.210;2023-11-19T01:28:20;94976.38;;;8.49;100.00
80988;BME280;70452;39.386;-3.210;2023-11-19T01:31:02;94978.78;;;8.45;100.00
80988;BME280;70452;39.386;-3.210;2023-11-19T01:33:37;94980.09;;;8.42;100.00
80988;BME280;70452;39.386;-3.210;2023-11-19T01:36:12;94977.53;;;8.36;100.00
80988;BME280;70452;39.386;-3.210;2023-11-19T01:38:55;94966.34;;;8.32;100.00
80988;BME280;70452;39.386;-3.210;2023-11-19T01:41:26;94969.00;;;8.27;100.00
80988;BME280;70452;39.386;-3.210;2023-11-19T01:43:58;94965.69;;;8.25;100.00
80988;BME280;70452;39.386;-3.210;2023-11-19T01:46:52;94960.53;;;8.23;100.00
80988;BME280;70452;39.386;-3.210;2023-11-19T01:49:25;94958.38;;;8.25;100.00
80988;BME280;70452;39.386;-3.210;2023-11-19T01:51:53;94961.34;;;8.24;100.00
80988;BME280;70452;39.386;-3.210;2023-11-19T01:54:27;94963.50;;;8.22;100.00
80988;BME280;70452;39.386;-3.210;2023-11-19T01:57:26;94967.28;;;8.21;100.00
80988;BME280;70452;39.386;-3.210;2023-11-19T02:00:01;94971.19;;;7.91;100.00
80988;BME280;70452;39.386;-3.210;2023-11-19T02:02:40;94971.09;;;7.52;100.00
80988;BME280;70452;39.386;-3.210;2023-11-19T02:05:15;94971.59;;;7.03;100.00
80988;BME280;70452;39.386;-3.210;2023-11-19T02:07:56;94972.56;;;6.85;100.00
80988;BME280;70452;39.386;-3.210;2023-11-19T02:10:31;94967.09;;;6.68;100.00
80988;BME280;70452;39.386;-3.210;2023-11-19T02:13:12;94975.19;;;6.40;100.00
80988;BME280;70452;39.386;-3.210;2023-11-19T02:15:44;94973.09;;;6.18;100.00
80988;BME280;70452;39.386;-3.210;2023-11-19T02:18:33;94969.56;;;6.17;100.00
80988;BME280;70452;39.386;-3.210;2023-11-19T02:21:02;94974.97;;;6.06;100.00
80988;BME280;70452;39.386;-3.210;2023-11-19T02:23:43;94969.91;;;5.97;100.00
80988;BME280;70452;39.386;-3.210;2023-11-19T02:26:47;94966.41;;;5.97;100.00
80988;BME280;70452;39.386;-3.210;2023-11-19T02:29:21;94958.13;;;6.27;100.00
80988;BME280;70452;39.386;-3.210;2023-11-19T02:31:55;94981.19;;;6.30;100.00
80988;BME280;70452;39.386;-3.210;2023-11-19T02:34:25;94972.63;;;6.09;100.00
80988;BME280;70452;39.386;-3.210;2023-11-19T02:37:00;94966.41;;;6.09;100.00
80988;BME280;70452;39.386;-3.210;2023-11-19T02:39:31;94968.25;;;6.08;100.00
80988;BME280;70452;39.386;-3.210;2023-11-19T02:42:20;94964.03;;;6.00;100.00
80988;BME280;70452;39.386;-3.210;2023-11-19T02:44:51;94959.69;;;5.99;100.00
80988;BME280;70452;39.386;-3.210;2023-11-19T02:47:30;94961.16;;;6.31;100.00
80988;BME280;70452;39.386;-3.210;2023-11-19T02:50:01;94954.44;;;6.45;100.00
80988;BME280;70452;39.386;-3.210;2023-11-19T02:52:30;94961.06;;;6.26;100.00
80988;BME280;70452;39.386;-3.210;2023-11-19T02:55:06;94948.63;;;6.13;100.00
80988;BME280;70452;39.386;-3.210;2023-11-19T02:57:41;94947.91;;;6.06;100.00
80988;BME280;70452;39.386;-3.210;2023-11-19T03:00:16;94943.56;;;6.05;100.00
80988;BME280;70452;39.386;-3.210;2023-11-19T03:02:48;94945.09;;;6.12;100.00
80988;BME280;70452;39.386;-3.210;2023-11-19T03:05:56;94948.97;;;6.16;100.00
80988;BME280;70452;39.386;-3.210;2023-11-19T03:08:36;94940.25;;;6.14;100.00
80988;BME280;70452;39.386;-3.210;2023-11-19T03:11:09;94935.66;;;5.91;100.00
80988;BME280;70452;39.386;-3.210;2023-11-19T03:13:44;94934.97;;;6.08;100.00
80988;BME280;70452;39.386;-3.210;2023-11-19T03:19:02;94932.63;;;5.99;100.00
80988;BME280;70452;39.386;-3.210;2023-11-19T03:21:37;94927.91;;;5.95;100.00
80988;BME280;70452;39.386;-3.210;2023-11-19T03:24:25;94932.38;;;6.13;100.00
80988;BME280;70452;39.386;-3.210;2023-11-19T03:27:04;94918.94;;;6.18;100.00
80988;BME280;70452;39.386;-3.210;2023-11-19T03:29:36;94933.31;;;5.83;100.00
80988;BME280;70452;39.386;-3.210;2023-11-19T03:32:08;94929.78;;;5.71;100.00
80988;BME280;70452;39.386;-3.210;2023-11-19T03:34:52;94927.91;;;5.59;100.00
80988;BME280;70452;39.386;-3.210;2023-11-19T03:37:49;94928.59;;;5.67;100.00
80988;BME280;70452;39.386;-3.210;2023-11-19T03:40:22;94933.53;;;5.58;100.00
80988;BME280;70452;39.386;-3.210;2023-11-19T03:43:10;94924.63;;;5.57;100.00
80988;BME280;70452;39.386;-3.210;2023-11-19T03:45:42;94922.13;;;5.56;100.00
80988;BME280;70452;39.386;-3.210;2023-11-19T03:48:39;94928.72;;;5.83;100.00
80988;BME280;70452;39.386;-3.210;2023-11-19T03:51:23;94922.88;;;5.98;100.00
80988;BME280;70452;39.386;-3.210;2023-11-19T03:54:00;94925.34;;;6.00;100.00
80988;BME280;70452;39.386;-3.210;2023-11-19T03:56:41;94928.50;;;5.85;100.00
80988;BME280;70452;39.386;-3.210;2023-11-19T03:59:19;94929.53;;;5.72;100.00
80988;BME280;70452;39.386;-3.210;2023-11-19T04:01:49;94925.81;;;6.09;100.00
80988;BME280;70452;39.386;-3.210;2023-11-19T04:04:27;94925.06;;;5.54;100.00
80988;BME280;70452;39.386;-3.210;2023-11-19T04:07:02;94927.75;;;5.31;100.00
80988;BME280;70452;39.386;-3.210;2023-11-19T04:09:41;94916.81;;;5.25;100.00
80988;BME280;70452;39.386;-3.210;2023-11-19T04:12:16;94917.88;;;5.24;100.00
80988;BME280;70452;39.386;-3.210;2023-11-19T04:14:48;94923.63;;;5.28;100.00
80988;BME280;70452;39.386;-3.210;2023-11-19T04:17:28;94924.56;;;5.34;100.00
80988;BME280;70452;39.386;-3.210;2023-11-19T04:20:01;94928.44;;;5.38;100.00
80988;BME280;70452;39.386;-3.210;2023-11-19T04:22:39;94930.34;;;5.49;100.00
80988;BME280;70452;39.386;-3.210;2023-11-19T04:25:07;94928.81;;;5.53;100.00
80988;BME280;70452;39.386;-3.210;2023-11-19T04:27:49;94927.44;;;5.51;100.00
80988;BME280;70452;39.386;-3.210;2023-11-19T04:30:23;94931.91;;;5.45;100.00
80988;BME280;70452;39.386;-3.210;2023-11-19T04:33:10;94931.19;;;5.50;100.00
80988;BME280;70452;39.386;-3.210;2023-11-19T04:35:44;94932.63;;;5.64;100.00
80988;BME280;70452;39.386;-3.210;2023-11-19T04:38:17;94930.50;;;5.78;100.00
80988;BME280;70452;39.386;-3.210;2023-11-19T04:40:48;94926.47;;;5.69;100.00
80988;BME280;70452;39.386;-3.210;2023-11-19T04:43:25;94937.31;;;5.45;100.00
80988;BME280;70452;39.386;-3.210;2023-11-19T04:45:51;94937.88;;;5.35;100.00
80988;BME280;70452;39.386;-3.210;2023-11-19T04:48:24;94941.50;;;5.41;100.00
80988;BME280;70452;39.386;-3.210;2023-11-19T04:51:05;94927.19;;;5.52;100.00
80988;BME280;70452;39.386;-3.210;2023-11-19T04:53:38;94933.44;;;5.64;100.00
80988;BME280;70452;39.386;-3.210;2023-11-19T04:56:20;94935.75;;;5.37;100.00
80988;BME280;70452;39.386;-3.210;2023-11-19T04:59:13;94938.31;;;5.32;100.00
80988;BME280;70452;39.386;-3.210;2023-11-19T05:01:51;94935.50;;;5.27;100.00
80988;BME280;70452;39.386;-3.210;2023-11-19T05:04:25;94925.63;;;5.21;100.00
80988;BME280;70452;39.386;-3.210;2023-11-19T05:07:01;94935.78;;;5.07;100.00
80988;BME280;70452;39.386;-3.210;2023-11-19T05:10:01;94932.03;;;5.08;100.00
80988;BME280;70452;39.386;-3.210;2023-11-19T05:12:40;94932.03;;;5.08;100.00
80988;BME280;70452;39.386;-3.210;2023-11-19T05:15:30;94930.91;;;5.28;100.00
80988;BME280;70452;39.386;-3.210;2023-11-19T05:18:06;94921.78;;;5.40;100.00
80988;BME280;70452;39.386;-3.210;2023-11-19T05:20:41;94921.50;;;5.18;100.00
80988;BME280;70452;39.386;-3.210;2023-11-19T05:23:27;94926.91;;;5.18;100.00
80988;BME280;70452;39.386;-3.210;2023-11-19T05:26:02;94914.09;;;5.25;100.00
80988;BME280;70452;39.386;-3.210;2023-11-19T05:28:31;94921.31;;;5.43;100.00
80988;BME280;70452;39.386;-3.210;2023-11-19T05:31:05;94928.72;;;5.60;100.00
80988;BME280;70452;39.386;-3.210;2023-11-19T05:33:58;94929.88;;;5.40;100.00
80988;BME280;70452;39.386;-3.210;2023-11-19T05:36:23;94926.38;;;4.98;100.00
80988;BME280;70452;39.386;-3.210;2023-11-19T05:38:53;94921.28;;;4.89;100.00
80988;BME280;70452;39.386;-3.210;2023-11-19T05:41:47;94929.13;;;4.79;100.00
80988;BME280;70452;39.386;-3.210;2023-11-19T05:44:19;94924.34;;;4.81;100.00
80988;BME280;70452;39.386;-3.210;2023-11-19T05:46:51;94920.31;;;4.72;100.00
80988;BME280;70452;39.386;-3.210;2023-11-19T05:49:28;94917.50;;;4.79;100.00
80988;BME280;70452;39.386;-3.210;2023-11-19T05:52:07;94911.69;;;4.63;100.00
80988;BME280;70452;39.386;-3.210;2023-11-19T05:54:39;94913.50;;;4.69;100.00
80988;BME280;70452;39.386;-3.210;2023-11-19T05:57:15;94919.19;;;4.92;100.00
80988;BME280;70452;39.386;-3.210;2023-11-19T05:59:48;94917.00;;;5.12;100.00
80988;BME280;70452;39.386;-3.210;2023-11-19T06:02:18;94919.88;;;5.29;100.00
80988;BME280;70452;39.386;-3.210;2023-11-19T06:04:50;94916.38;;;5.40;100.00
80988;BME280;70452;39.386;-3.210;2023-11-19T06:07:24;94913.09;;;5.50;100.00
80988;BME280;70452;39.386;-3.210;2023-11-19T06:10:02;94915.41;;;5.58;100.00
80988;BME280;70452;39.386;-3.210;2023-11-19T06:12:44;94913.91;;;5.62;100.00
80988;BME280;70452;39.386;-3.210;2023-11-19T06:15:16;94909.22;;;5.70;100.00
80988;BME280;70452;39.386;-3.210;2023-11-19T06:17:51;94907.09;;;5.72;100.00
80988;BME280;70452;39.386;-3.210;2023-11-19T06:20:35;94907.31;;;5.70;100.00
80988;BME280;70452;39.386;-3.210;2023-11-19T06:23:17;94904.59;;;5.70;100.00
80988;BME280;70452;39.386;-3.210;2023-11-19T06:25:47;94907.91;;;5.72;100.00
80988;BME280;70452;39.386;-3.210;2023-11-19T06:28:19;94906.84;;;5.73;100.00
80988;BME280;70452;39.386;-3.210;2023-11-19T06:30:59;94913.66;;;5.76;100.00
80988;BME280;70452;39.386;-3.210;2023-11-19T06:33:40;94907.66;;;5.74;100.00
80988;BME280;70452;39.386;-3.210;2023-11-19T06:36:13;94904.50;;;5.77;100.00
80988;BME280;70452;39.386;-3.210;2023-11-19T06:38:45;94901.56;;;5.78;100.00
80988;BME280;70452;39.386;-3.210;2023-11-19T06:41:19;94907.56;;;5.80;100.00
80988;BME280;70452;39.386;-3.210;2023-11-19T06:44:00;94902.94;;;5.81;100.00
80988;BME280;70452;39.386;-3.210;2023-11-19T06:46:34;94913.88;;;5.86;100.00
80988;BME280;70452;39.386;-3.210;2023-11-19T06:49:14;94901.78;;;5.89;100.00
80988;BME280;70452;39.386;-3.210;2023-11-19T06:51:46;94898.84;;;5.90;100.00
80988;BME280;70452;39.386;-3.210;2023-11-19T06:57:06;94910.47;;;5.91;100.00
80988;BME280;70452;39.386;-3.210;2023-11-19T06:59:38;94905.88;;;5.91;100.00
80988;BME280;70452;39.386;-3.210;2023-11-19T07:02:10;94901.56;;;5.90;100.00
80988;BME280;70452;39.386;-3.210;2023-11-19T07:04:52;94907.78;;;5.91;100.00
80988;BME280;70452;39.386;-3.210;2023-11-19T07:07:44;94919.91;;;5.88;100.00
80988;BME280;70452;39.386;-3.210;2023-11-19T07:10:27;94923.19;;;5.90;100.00
80988;BME280;70452;39.386;-3.210;2023-11-19T07:13:01;94923.06;;;5.85;100.00
80988;BME280;70452;39.386;-3.210;2023-11-19T07:15:31;94914.38;;;5.83;100.00
80988;BME280;70452;39.386;-3.210;2023-11-19T07:18:13;94917.56;;;5.80;100.00
80988;BME280;70452;39.386;-3.210;2023-11-19T07:20:44;94925.09;;;5.78;100.00
80988;BME280;70452;39.386;-3.210;2023-11-19T07:23:15;94919.78;;;5.83;100.00
80988;BME280;70452;39.386;-3.210;2023-11-19T07:25:56;94918.28;;;5.99;100.00
80988;BME280;70452;39.386;-3.210;2023-11-19T07:28:35;94920.00;;;6.17;100.00
80988;BME280;70452;39.386;-3.210;2023-11-19T07:31:10;94913.91;;;5.62;100.00
80988;BME280;70452;39.386;-3.210;2023-11-19T07:33:46;94923.34;;;5.06;100.00
80988;BME280;70452;39.386;-3.210;2023-11-19T07:36:24;94918.41;;;4.61;100.00
80988;BME280;70452;39.386;-3.210;2023-11-19T07:38:55;94923.13;;;4.77;100.00
80988;BME280;70452;39.386;-3.210;2023-11-19T07:41:36;94922.41;;;4.70;100.00
80988;BME280;70452;39.386;-3.210;2023-11-19T07:44:05;94921.50;;;4.76;100.00
80988;BME280;70452;39.386;-3.210;2023-11-19T07:46:37;94922.25;;;4.83;100.00
80988;BME280;70452;39.386;-3.210;2023-11-19T07:49:27;94921.75;;;4.86;100.00
80988;BME280;70452;39.386;-3.210;2023-11-19T07:52:08;94927.25;;;5.22;100.00
80988;BME280;70452;39.386;-3.210;2023-11-19T07:54:45;94930.78;;;5.22;100.00
80988;BME280;70452;39.386;-3.210;2023-11-19T07:57:18;94929.03;;;5.28;100.00
80988;BME280;70452;39.386;-3.210;2023-11-19T07:59:52;94940.38;;;5.96;100.00
80988;BME280;70452;39.386;-3.210;2023-11-19T08:02:49;94943.28;;;5.82;100.00
80988;BME280;70452;39.386;-3.210;2023-11-19T08:05:28;94946.13;;;5.64;100.00
80988;BME280;70452;39.386;-3.210;2023-11-19T08:08:09;94940.59;;;5.71;100.00
80988;BME280;70452;39.386;-3.210;2023-11-19T08:10:50;94939.31;;;5.73;100.00
80988;BME280;70452;39.386;-3.210;2023-11-19T08:13:23;94953.75;;;5.79;100.00
80988;BME280;70452;39.386;-3.210;2023-11-19T08:15:53;94948.34;;;5.79;100.00
80988;BME280;70452;39.386;-3.210;2023-11-19T08:18:25;94949.94;;;5.98;100.00
80988;BME280;70452;39.386;-3.210;2023-11-19T08:20:59;94958.31;;;6.49;100.00
80988;BME280;70452;39.386;-3.210;2023-11-19T08:23:34;94951.03;;;6.79;100.00
80988;BME280;70452;39.386;-3.210;2023-11-19T08:25:59;94969.72;;;6.51;100.00
80988;BME280;70452;39.386;-3.210;2023-11-19T08:28:40;94960.09;;;6.44;100.00
80988;BME280;70452;39.386;-3.210;2023-11-19T08:31:17;94964.34;;;6.40;100.00
80988;BME280;70452;39.386;-3.210;2023-11-19T08:33:57;94969.50;;;6.53;100.00
80988;BME280;70452;39.386;-3.210;2023-11-19T08:36:39;94967.13;;;6.56;100.00
80988;BME280;70452;39.386;-3.210;2023-11-19T08:39:16;94963.91;;;6.71;100.00
80988;BME280;70452;39.386;-3.210;2023-11-19T08:42:01;94966.75;;;6.65;100.00
80988;BME280;70452;39.386;-3.210;2023-11-19T08:44:31;94968.09;;;7.37;100.00
80988;BME280;70452;39.386;-3.210;2023-11-19T08:47:11;94964.94;;;7.11;100.00
80988;BME280;70452;39.386;-3.210;2023-11-19T08:49:40;94967.81;;;7.67;100.00
80988;BME280;70452;39.386;-3.210;2023-11-19T08:52:11;94974.50;;;8.32;100.00
80988;BME280;70452;39.386;-3.210;2023-11-19T08:54:45;94975.09;;;8.78;100.00
80988;BME280;70452;39.386;-3.210;2023-11-19T08:57:14;94977.28;;;9.26;100.00
80988;BME280;70452;39.386;-3.210;2023-11-19T08:59:51;94970.81;;;9.59;100.00
80988;BME280;70452;39.386;-3.210;2023-11-19T09:02:38;94968.59;;;9.88;100.00
80988;BME280;70452;39.386;-3.210;2023-11-19T09:05:24;94969.34;;;10.11;100.00
80988;BME280;70452;39.386;-3.210;2023-11-19T09:07:56;94960.72;;;10.29;100.00
80988;BME280;70452;39.386;-3.210;2023-11-19T09:10:25;94970.41;;;10.47;100.00
80988;BME280;70452;39.386;-3.210;2023-11-19T09:13:10;94974.31;;;10.67;99.89
80988;BME280;70452;39.386;-3.210;2023-11-19T09:15:45;94972.44;;;10.73;100.00
80988;BME280;70452;39.386;-3.210;2023-11-19T09:18:27;94973.31;;;10.83;100.00
80988;BME280;70452;39.386;-3.210;2023-11-19T09:21:09;94975.44;;;10.71;100.00
80988;BME280;70452;39.386;-3.210;2023-11-19T09:23:48;94971.47;;;10.99;100.00
80988;BME280;70452;39.386;-3.210;2023-11-19T09:26:29;94966.00;;;10.99;100.00
80988;BME280;70452;39.386;-3.210;2023-11-19T09:29:27;94961.97;;;11.22;100.00
80988;BME280;70452;39.386;-3.210;2023-11-19T09:32:04;94960.44;;;11.68;100.00
80988;BME280;70452;39.386;-3.210;2023-11-19T09:34:39;94963.72;;;11.64;98.86
80988;BME280;70452;39.386;-3.210;2023-11-19T09:37:35;94955.78;;;11.58;99.53
80988;BME280;70452;39.386;-3.210;2023-11-19T09:40:17;94962.56;;;11.24;100.00
80988;BME280;70452;39.386;-3.210;2023-11-19T09:43:19;94955.47;;;11.29;100.00
80988;BME280;70452;39.386;-3.210;2023-11-19T09:45:57;94950.28;;;11.32;100.00
80988;BME280;70452;39.386;-3.210;2023-11-19T09:48:44;94956.06;;;11.77;100.00
80988;BME280;70452;39.386;-3.210;2023-11-19T09:54:22;94963.47;;;12.12;98.69
80988;BME280;70452;39.386;-3.210;2023-11-19T09:57:10;94947.34;;;12.31;99.17
80988;BME280;70452;39.386;-3.210;2023-11-19T09:59:49;94945.56;;;12.76;96.79
80988;BME280;70452;39.386;-3.210;2023-11-19T10:02:42;94949.44;;;12.70;96.90
80988;BME280;70452;39.386;-3.210;2023-11-19T10:05:25;94954.97;;;12.40;99.44
80988;BME280;70452;39.386;-3.210;2023-11-19T10:08:09;94944.00;;;12.55;98.70
80988;BME280;70452;39.386;-3.210;2023-11-19T10:11:09;94948.09;;;12.52;99.16
80988;BME280;70452;39.386;-3.210;2023-11-19T10:13:55;94950.38;;;13.10;97.48
80988;BME280;70452;39.386;-3.210;2023-11-19T10:16:43;94946.94;;;13.44;95.53
80988;BME280;70452;39.386;-3.210;2023-11-19T10:22:42;94948.13;;;13.18;96.87
80988;BME280;70452;39.386;-3.210;2023-11-19T10:25:43;94948.03;;;13.43;96.30
80988;BME280;70452;39.386;-3.210;2023-11-19T10:28:30;94939.19;;;13.57;95.84
80988;BME280;70452;39.386;-3.210;2023-11-19T10:31:44;94932.94;;;13.85;94.99
80988;BME280;70452;39.386;-3.210;2023-11-19T10:34:30;94924.47;;;13.82;96.10
80988;BME280;70452;39.386;-3.210;2023-11-19T10:40:24;94925.72;;;14.00;95.29
80988;BME280;70452;39.386;-3.210;2023-11-19T10:43:25;94923.56;;;14.26;94.15
80988;BME280;70452;39.386;-3.210;2023-11-19T10:46:13;94918.31;;;14.59;91.93
80988;BME280;70452;39.386;-3.210;2023-11-19T10:49:11;94917.66;;;14.91;90.92
80988;BME280;70452;39.386;-3.210;2023-11-19T10:51:50;94924.91;;;14.82;90.54
80988;BME280;70452;39.386;-3.210;2023-11-19T10:54:55;94925.22;;;14.80;90.93
80988;BME280;70452;39.386;-3.210;2023-11-19T11:00:37;94914.47;;;15.27;89.05
80988;BME280;70452;39.386;-3.210;2023-11-19T11:03:21;94918.66;;;15.19;89.69
80988;BME280;70452;39.386;-3.210;2023-11-19T11:05:57;94918.78;;;15.33;88.48
80988;BME280;70452;39.386;-3.210;2023-11-19T11:08:48;94911.34;;;15.53;87.69
80988;BME280;70452;39.386;-3.210;2023-11-19T11:11:20;94904.00;;;15.48;87.40
80988;BME280;70452;39.386;-3.210;2023-11-19T11:13:55;94902.81;;;15.73;86.91
80988;BME280;70452;39.386;-3.210;2023-11-19T11:16:46;94901.03;;;15.83;86.41
80988;BME280;70452;39.386;-3.210;2023-11-19T11:19:16;94895.97;;;15.90;86.55
80988;BME280;70452;39.386;-3.210;2023-11-19T11:22:11;94889.22;;;16.15;85.19
80988;BME280;70452;39.386;-3.210;2023-11-19T11:27:41;94885.34;;;15.83;85.86
80988;BME280;70452;39.386;-3.210;2023-11-19T11:37:10;94868.16;;;16.24;85.63
80988;BME280;70452;39.386;-3.210;2023-11-19T11:39:33;94859.22;;;16.46;83.76
80988;BME280;70452;39.386;-3.210;2023-11-19T11:45:11;94849.97;;;16.56;83.01
80988;BME280;70452;39.386;-3.210;2023-11-19T11:50:30;94847.72;;;16.86;81.53
80988;BME280;70452;39.386;-3.210;2023-11-19T11:53:20;94843.72;;;17.06;81.05
80988;BME280;70452;39.386;-3.210;2023-11-19T11:56:00;94840.28;;;17.00;79.50
80988;BME280;70452;39.386;-3.210;2023-11-19T11:59:01;94838.13;;;17.11;79.94
80988;BME280;70452;39.386;-3.210;2023-11-19T12:01:31;94833.94;;;17.00;79.53
80988;BME280;70452;39.386;-3.210;2023-11-19T12:04:06;94834.22;;;17.12;78.78
80988;BME280;70452;39.386;-3.210;2023-11-19T12:07:04;94824.25;;;17.16;78.79
80988;BME280;70452;39.386;-3.210;2023-11-19T12:09:37;94825.03;;;17.17;78.46
80988;BME280;70452;39.386;-3.210;2023-11-19T12:15:02;94818.22;;;17.51;76.79
80988;BME280;70452;39.386;-3.210;2023-11-19T12:17:56;94805.91;;;17.57;76.59
80988;BME280;70452;39.386;-3.210;2023-11-19T12:20:26;94799.97;;;17.63;75.40
80988;BME280;70452;39.386;-3.210;2023-11-19T12:22:59;94795.59;;;17.62;75.77
80988;BME280;70452;39.386;-3.210;2023-11-19T12:25:35;94800.22;;;17.53;76.13
80988;BME280;70452;39.386;-3.210;2023-11-19T12:28:26;94797.66;;;17.57;76.65
80988;BME280;70452;39.386;-3.210;2023-11-19T12:31:22;94789.13;;;17.67;75.18
80988;BME280;70452;39.386;-3.210;2023-11-19T12:33:51;94782.88;;;17.75;75.46
80988;BME280;70452;39.386;-3.210;2023-11-19T12:36:28;94777.53;;;17.79;73.57
80988;BME280;70452;39.386;-3.210;2023-11-19T12:39:13;94777.41;;;17.84;73.63
80988;BME280;70452;39.386;-3.210;2023-11-19T12:41:55;94778.00;;;17.95;73.90
80988;BME280;70452;39.386;-3.210;2023-11-19T12:44:33;94773.16;;;18.01;73.77
80988;BME280;70452;39.386;-3.210;2023-11-19T12:47:06;94775.50;;;18.16;71.02
80988;BME280;70452;39.386;-3.210;2023-11-19T12:49:36;94777.13;;;18.17;69.81
80988;BME280;70452;39.386;-3.210;2023-11-19T12:52:28;94763.72;;;18.24;71.21
80988;BME280;70452;39.386;-3.210;2023-11-19T12:55:03;94768.22;;;18.20;69.88
80988;BME280;70452;39.386;-3.210;2023-11-19T12:57:45;94767.44;;;18.28;71.01
80988;BME280;70452;39.386;-3.210;2023-11-19T13:00:24;94764.91;;;18.41;71.06
80988;BME280;70452;39.386;-3.210;2023-11-19T13:02:59;94764.91;;;18.49;70.70
80988;BME280;70452;39.386;-3.210;2023-11-19T13:05:41;94757.13;;;18.51;70.92
80988;BME280;70452;39.386;-3.210;2023-11-19T13:08:17;94761.06;;;18.59;70.32
80988;BME280;70452;39.386;-3.210;2023-11-19T13:10:52;94753.13;;;18.66;69.65
80988;BME280;70452;39.386;-3.210;2023-11-19T13:13:28;94745.84;;;18.70;69.64
80988;BME280;70452;39.386;-3.210;2023-11-19T13:16:07;94744.84;;;18.75;68.52
80988;BME280;70452;39.386;-3.210;2023-11-19T13:18:40;94747.31;;;18.77;68.67
80988;BME280;70452;39.386;-3.210;2023-11-19T13:21:15;94747.97;;;18.82;67.26
80988;BME280;70452;39.386;-3.210;2023-11-19T13:23:45;94748.63;;;18.79;67.50
80988;BME280;70452;39.386;-3.210;2023-11-19T13:26:30;94752.38;;;18.83;66.98
80988;BME280;70452;39.386;-3.210;2023-11-19T13:29:10;94744.75;;;18.89;67.42
80988;BME280;70452;39.386;-3.210;2023-11-19T13:31:45;94744.91;;;18.84;68.26
80988;BME280;70452;39.386;-3.210;2023-11-19T13:37:20;94734.19;;;18.82;68.27
80988;BME280;70452;39.386;-3.210;2023-11-19T13:39:53;94734.34;;;18.86;68.06
80988;BME280;70452;39.386;-3.210;2023-11-19T13:42:38;94723.31;;;18.86;68.27
80988;BME280;70452;39.386;-3.210;2023-11-19T13:45:15;94721.69;;;18.93;66.96
80988;BME280;70452;39.386;-3.210;2023-11-19T13:47:47;94713.91;;;18.87;67.38
80988;BME280;70452;39.386;-3.210;2023-11-19T13:50:30;94715.84;;;18.86;67.46
80988;BME280;70452;39.386;-3.210;2023-11-19T13:53:13;94709.34;;;18.91;66.92
80988;BME280;70452;39.386;-3.210;2023-11-19T13:56:12;94711.13;;;18.96;66.14
80988;BME280;70452;39.386;-3.210;2023-11-19T13:58:38;94707.25;;;18.97;65.61
80988;BME280;70452;39.386;-3.210;2023-11-19T14:01:11;94703.00;;;18.99;65.14
80988;BME280;70452;39.386;-3.210;2023-11-19T14:03:49;94697.66;;;18.94;65.17
80988;BME280;70452;39.386;-3.210;2023-11-19T14:06:26;94706.59;;;19.00;64.87
80988;BME280;70452;39.386;-3.210;2023-11-19T14:09:01;94698.66;;;18.98;64.88
80988;BME280;70452;39.386;-3.210;2023-11-19T14:11:52;94699.28;;;18.86;62.18
80988;BME280;70452;39.386;-3.210;2023-11-19T14:14:33;94696.84;;;18.85;56.39
80988;BME280;70452;39.386;-3.210;2023-11-19T14:17:15;94692.28;;;18.89;56.14
80988;BME280;70452;39.386;-3.210;2023-11-19T14:19:47;94691.16;;;18.90;56.04
80988;BME280;70452;39.386;-3.210;2023-11-19T14:22:31;94688.09;;;18.91;55.81
80988;BME280;70452;39.386;-3.210;2023-11-19T14:25:15;94692.44;;;18.92;55.70
80988;BME280;70452;39.386;-3.210;2023-11-19T14:28:10;94684.00;;;18.89;55.13
80988;BME280;70452;39.386;-3.210;2023-11-19T14:30:39;94682.25;;;18.93;54.91
80988;BME280;70452;39.386;-3.210;2023-11-19T14:33:21;94682.56;;;18.91;55.40